Ophir — FI3476 — position and weather

sailwx.info

Track history (hours):
 
Tides and Currents Weather Stations Pressure Air Temp Water Temp Dewpoint Dewpoint Depression Visibility Wind Speed Wind Dir Waves Ship Positions

Ophir

Last reported at 2017-Aug-21 12:57 UTC. Time now 2017-Sep-20 22:11 UTC.
Position N 47°28' W 002°42'.
Warning: this ship's position is 30 days out of date.

Length 12 m.

Type: Sailing vessel. MMSI: 227119850.

Date/timePositionNaut miles runAvg speedWind from/ knotsBaromVisibWave heightAir tempDewpointWater temp
2017-Aug-21 12:57N 47°28' W 002°42'13 0.6
2017-Aug-20 12:57N 47°29' W 003°01'2 4.7
2017-Aug-20 12:28N 47°32' W 003°01'5 0.1
2017-Aug-18 16:59N 47°34' W 002°55'3 5.7
2017-Aug-18 16:29N 47°36' W 002°52'1 1.1
2017-Aug-18 15:55N 47°36' W 002°51'0 0.0
2017-Aug-17 15:02N 47°36' W 002°51'0 0.0
2017-Aug-17 15:00N 47°36' W 002°51'0 0.0
2017-Aug-17 14:29N 47°36' W 002°51'0 0.0
2017-Aug-17 13:59N 47°36' W 002°51'0 0.0
2017-Aug-17 13:29N 47°36' W 002°51'0 0.0
2017-Aug-17 13:00N 47°36' W 002°51'2 3.2
2017-Aug-17 12:30N 47°35' W 002°53'6 0.3
2017-Aug-16 15:57N 47°32' W 003°01'3 1.9
2017-Aug-16 14:08N 47°29' W 003°02'1 5.2
2017-Aug-16 13:57N 47°30' W 003°02'  
2017-Aug-12 14:47N 47°28' W 002°41'21 4.6
2017-Aug-12 10:18N 47°28' W 003°12'2 6.6
2017-Aug-12 09:58N 47°30' W 003°14'3 6.8
2017-Aug-12 09:30N 47°33' W 003°16'3 6.8
2017-Aug-12 09:00N 47°35' W 003°20'  
Track history (hours):
 
Tides and Currents Weather Stations Pressure Air Temp Water Temp Dewpoint Dewpoint Depression Visibility Wind Speed Wind Dir Waves Ship Positions

Ophir

Last reported at 2017-Aug-21 12:57 UTC. Time now 2017-Sep-20 22:11 UTC.
Position N 47°28' W 002°42'.
Warning: this ship's position is 30 days out of date.

Length 12 m.

Type: Sailing vessel. MMSI: 227119850.

Date/timePositionNaut miles runAvg speedWind from/ knotsBaromVisibWave heightAir tempDewpointWater temp
2017-Aug-21 12:57N 47°28' W 002°42'13 0.6
2017-Aug-20 12:57N 47°29' W 003°01'2 4.7
2017-Aug-20 12:28N 47°32' W 003°01'5 0.1
2017-Aug-18 16:59N 47°34' W 002°55'3 5.7
2017-Aug-18 16:29N 47°36' W 002°52'1 1.1
2017-Aug-18 15:55N 47°36' W 002°51'0 0.0
2017-Aug-17 15:02N 47°36' W 002°51'0 0.0
2017-Aug-17 15:00N 47°36' W 002°51'0 0.0
2017-Aug-17 14:29N 47°36' W 002°51'0 0.0
2017-Aug-17 13:59N 47°36' W 002°51'0 0.0
2017-Aug-17 13:29N 47°36' W 002°51'0 0.0
2017-Aug-17 13:00N 47°36' W 002°51'2 3.2
2017-Aug-17 12:30N 47°35' W 002°53'6 0.3
2017-Aug-16 15:57N 47°32' W 003°01'3 1.9
2017-Aug-16 14:08N 47°29' W 003°02'1 5.2
2017-Aug-16 13:57N 47°30' W 003°02'  
2017-Aug-12 14:47N 47°28' W 002°41'21 4.6
2017-Aug-12 10:18N 47°28' W 003°12'2 6.6
2017-Aug-12 09:58N 47°30' W 003°14'3 6.8
2017-Aug-12 09:30N 47°33' W 003°16'3 6.8
2017-Aug-12 09:00N 47°35' W 003°20'  

Dump ship's entire track history